createdAt,value
2018-09-26T00:03:15.254Z,101830.75
2018-09-26T00:05:43.848Z,101825.86
2018-09-26T00:08:12.513Z,101821.98
2018-09-26T00:10:41.151Z,101822.96
2018-09-26T00:13:09.756Z,101816.14
2018-09-26T00:15:38.491Z,101815.33
2018-09-26T00:18:07.146Z,101821.38
2018-09-26T00:20:35.832Z,101823.64
2018-09-26T00:23:04.549Z,101817.50
2018-09-26T00:25:33.368Z,101822.79
2018-09-26T00:28:02.015Z,101827.58
2018-09-26T00:30:30.648Z,101831.95
2018-09-26T00:32:59.441Z,101833.26
2018-09-26T00:35:28.149Z,101828.41
2018-09-26T00:37:56.964Z,101816.42
2018-09-26T00:40:25.756Z,101818.01
2018-09-26T00:42:54.523Z,101812.75
2018-09-26T00:45:23.101Z,101804.39
2018-09-26T00:47:51.789Z,101806.63
2018-09-26T00:50:20.603Z,101803.62
2018-09-26T00:52:49.334Z,101799.28
2018-09-26T00:55:17.980Z,101794.52
2018-09-26T00:57:46.856Z,101794.56
2018-09-26T01:00:15.336Z,101787.18
2018-09-26T01:02:44.161Z,101781.95
2018-09-26T01:05:12.877Z,101782.41
2018-09-26T01:07:41.823Z,101776.36
2018-09-26T01:10:10.524Z,101774.64
2018-09-26T01:12:39.465Z,101774.66
2018-09-26T01:15:08.361Z,101769.41
2018-09-26T01:17:36.970Z,101753.18
2018-09-26T01:20:05.734Z,101747.08
2018-09-26T01:22:34.316Z,101742.34
2018-09-26T01:25:02.976Z,101740.54
2018-09-26T01:27:34.306Z,101742.70
2018-09-26T01:30:04.879Z,101734.41
2018-09-26T01:32:33.548Z,101732.23
2018-09-26T01:35:02.528Z,101732.25
2018-09-26T01:37:31.100Z,101732.80
2018-09-26T01:40:00.280Z,101730.17
2018-09-26T01:42:29.102Z,101728.02
2018-09-26T01:44:57.684Z,101730.69
2018-09-26T01:47:26.304Z,101731.09
2018-09-26T01:49:54.874Z,101733.71
2018-09-26T01:52:23.447Z,101740.25
2018-09-26T01:54:52.058Z,101748.49
2018-09-26T01:57:20.728Z,101747.58
2018-09-26T01:59:49.409Z,101748.34
2018-09-26T02:02:18.013Z,101749.06
2018-09-26T02:04:46.679Z,101749.40
2018-09-26T02:07:15.286Z,101740.17
2018-09-26T02:09:43.802Z,101736.97
2018-09-26T02:12:12.598Z,101729.79
2018-09-26T02:14:41.236Z,101728.43
2018-09-26T02:17:09.692Z,101722.72
2018-09-26T02:19:38.246Z,101721.82
2018-09-26T02:22:06.778Z,101716.18
2018-09-26T02:24:35.426Z,101717.03
2018-09-26T02:27:04.025Z,101713.92
2018-09-26T02:29:32.713Z,101711.80
2018-09-26T02:32:01.376Z,101718.74
2018-09-26T02:34:29.980Z,101718.74
2018-09-26T02:36:58.518Z,101720.95
2018-09-26T02:39:27.275Z,101726.64
2018-09-26T02:41:55.828Z,101720.12
2018-09-26T02:44:24.513Z,101714.48
2018-09-26T02:46:53.044Z,101704.87
2018-09-26T02:49:21.524Z,101698.74
2018-09-26T02:51:50.075Z,101698.74
2018-09-26T02:54:18.588Z,101693.97
2018-09-26T02:56:47.172Z,101685.66
2018-09-26T02:59:15.787Z,101676.11
2018-09-26T03:01:44.341Z,101683.56
2018-09-26T03:04:13.021Z,101700.17
2018-09-26T03:06:41.716Z,101701.59
2018-09-26T03:09:11.050Z,101684.20
2018-09-26T03:11:39.844Z,101682.91
2018-09-26T03:14:08.401Z,101688.19
2018-09-26T03:16:37.094Z,101696.48
2018-09-26T03:19:05.704Z,101702.17
2018-09-26T03:21:34.342Z,101709.17
2018-09-26T03:24:02.940Z,101714.40
2018-09-26T03:26:31.558Z,101717.42
2018-09-26T03:29:00.095Z,101708.25
2018-09-26T03:31:28.662Z,101705.63
2018-09-26T03:33:57.644Z,101708.20
2018-09-26T03:36:26.221Z,101707.73
2018-09-26T03:38:54.796Z,101691.99
2018-09-26T03:41:23.352Z,101686.23
2018-09-26T03:43:51.993Z,101677.48
2018-09-26T03:46:20.711Z,101670.48
2018-09-26T03:48:49.374Z,101671.39
2018-09-26T03:51:17.952Z,101674.81
2018-09-26T03:53:46.547Z,101667.87
2018-09-26T03:56:15.097Z,101679.71
2018-09-26T03:58:44.011Z,101679.81
2018-09-26T04:01:12.600Z,101685.05
2018-09-26T04:03:41.196Z,101683.80
2018-09-26T04:06:09.860Z,101679.49
2018-09-26T04:08:38.409Z,101677.34
2018-09-26T04:11:07.242Z,101676.54
2018-09-26T04:13:35.836Z,101676.54
2018-09-26T04:16:04.565Z,101683.53
2018-09-26T04:18:33.143Z,101682.69
2018-09-26T04:21:01.801Z,101686.22
2018-09-26T04:23:30.358Z,101691.97
2018-09-26T04:25:58.992Z,101685.42
2018-09-26T04:28:27.557Z,101684.58
2018-09-26T04:30:56.301Z,101681.95
2018-09-26T04:33:24.954Z,101675.88
2018-09-26T04:35:53.553Z,101672.39
2018-09-26T04:38:22.154Z,101687.65
2018-09-26T04:40:50.834Z,101683.77
2018-09-26T04:43:19.391Z,101679.46
2018-09-26T04:45:47.944Z,101670.77
2018-09-26T04:48:16.641Z,101673.46
2018-09-26T04:50:45.326Z,101671.30
2018-09-26T04:53:13.818Z,101666.98
2018-09-26T04:55:42.424Z,101660.03
2018-09-26T04:58:10.956Z,101661.34
2018-09-26T05:00:39.532Z,101672.31
2018-09-26T05:03:08.148Z,101676.70
2018-09-26T05:05:36.877Z,101668.51
2018-09-26T05:08:05.563Z,101655.88
2018-09-26T05:10:34.184Z,101560.88
2018-09-26T05:13:02.765Z,101645.08
2018-09-26T05:15:31.282Z,101641.66
2018-09-26T05:17:59.868Z,101648.76
2018-09-26T05:20:28.409Z,101663.72
2018-09-26T05:22:57.300Z,101668.61
2018-09-26T05:25:25.951Z,101668.23
2018-09-26T05:27:54.655Z,101662.17
2018-09-26T05:30:23.349Z,101668.83
2018-09-26T05:32:51.943Z,101671.96
2018-09-26T05:35:20.594Z,101678.56
2018-09-26T05:37:49.332Z,101679.42
2018-09-26T05:40:17.977Z,101676.00
2018-09-26T05:42:46.567Z,101674.24
2018-09-26T05:45:15.133Z,101673.89
2018-09-26T05:47:43.943Z,101679.70
2018-09-26T05:50:12.733Z,101674.56
2018-09-26T05:52:41.669Z,101674.20
2018-09-26T05:55:10.773Z,101673.95
2018-09-26T05:57:39.895Z,101680.16
2018-09-26T06:00:09.147Z,101678.53
2018-09-26T06:02:38.480Z,101679.14
2018-09-26T06:05:07.642Z,101682.00
2018-09-26T06:07:38.214Z,101676.51
2018-09-26T06:10:07.289Z,101675.42
2018-09-26T06:12:37.644Z,101676.19
2018-09-26T06:15:06.766Z,101669.90
2018-09-26T06:17:36.063Z,101659.73
2018-09-26T06:20:05.263Z,101664.60
2018-09-26T06:22:34.299Z,101665.91
2018-09-26T06:25:03.554Z,101666.32
2018-09-26T06:27:34.546Z,101669.91
2018-09-26T06:30:03.802Z,101665.09
2018-09-26T06:32:33.262Z,101657.53
2018-09-26T06:35:08.294Z,101664.92
2018-09-26T06:37:53.801Z,101658.66
2018-09-26T06:40:22.470Z,101654.47
2018-09-26T06:43:01.314Z,101658.59
2018-09-26T06:45:29.923Z,101671.83
2018-09-26T06:47:58.510Z,101673.16
2018-09-26T06:50:27.169Z,101668.34
2018-09-26T06:53:03.740Z,101669.66
2018-09-26T06:55:38.624Z,101667.48
2018-09-26T06:58:07.254Z,101673.19
2018-09-26T07:00:35.867Z,101667.03
2018-09-26T07:03:05.061Z,101658.71
2018-09-26T07:05:33.566Z,101656.92
2018-09-26T07:08:02.374Z,101657.29
2018-09-26T07:10:30.873Z,101651.92
2018-09-26T07:12:59.762Z,101642.45
2018-09-26T07:15:28.258Z,101652.96
2018-09-26T07:17:56.798Z,101656.77
2018-09-26T07:20:25.376Z,101658.77
2018-09-26T07:22:54.046Z,101658.98
2018-09-26T07:25:22.706Z,101660.51
2018-09-26T07:27:51.366Z,101657.27
2018-09-26T07:30:19.920Z,101654.08
2018-09-26T07:32:48.563Z,101661.45
2018-09-26T07:35:17.188Z,101659.83
2018-09-26T07:37:45.839Z,101654.13
2018-09-26T07:40:14.396Z,101664.23
2018-09-26T07:42:42.933Z,101664.20
2018-09-26T07:45:19.258Z,101659.06
2018-09-26T07:47:48.520Z,101661.39
2018-09-26T07:50:17.054Z,101663.66
2018-09-26T07:52:45.940Z,101661.87
2018-09-26T07:55:14.585Z,101668.88
2018-09-26T07:57:43.180Z,101671.33
2018-09-26T08:00:11.732Z,101672.37
2018-09-26T08:02:40.313Z,101674.58
2018-09-26T08:05:09.613Z,101657.82
2018-09-26T08:07:38.316Z,101665.23
2018-09-26T08:10:06.952Z,101677.91
2018-09-26T08:12:35.651Z,101678.56
2018-09-26T08:15:04.299Z,101686.56
2018-09-26T08:17:32.933Z,101684.26
2018-09-26T08:20:01.690Z,101664.23
2018-09-26T08:22:30.468Z,101674.88
2018-09-26T08:24:59.003Z,101694.17
2018-09-26T08:27:27.586Z,101680.63
2018-09-26T08:29:56.210Z,101675.98
2018-09-26T08:32:24.711Z,101680.93
2018-09-26T08:34:53.222Z,101673.91
2018-09-26T08:37:21.836Z,101677.09
2018-09-26T08:39:50.362Z,101681.39
2018-09-26T08:42:19.019Z,101675.47
2018-09-26T08:44:47.585Z,101675.79
2018-09-26T08:47:16.258Z,101671.88
2018-09-26T08:49:44.926Z,101673.06
2018-09-26T08:52:13.542Z,101669.95
2018-09-26T08:54:42.263Z,101662.48
2018-09-26T08:57:10.930Z,101659.86
2018-09-26T08:59:39.921Z,101659.37
2018-09-26T09:02:08.566Z,101657.20
2018-09-26T09:04:37.226Z,101668.73
2018-09-26T09:07:06.005Z,101664.77
2018-09-26T09:09:34.805Z,101651.16
2018-09-26T09:12:04.162Z,101655.85
2018-09-26T09:14:32.928Z,101654.94
2018-09-26T09:17:01.454Z,101655.52
2018-09-26T09:19:30.078Z,101654.27
2018-09-26T09:21:58.617Z,101658.72
2018-09-26T09:24:27.229Z,101652.80
2018-09-26T09:26:55.811Z,101655.13
2018-09-26T09:29:24.379Z,101662.99
2018-09-26T09:31:52.894Z,101654.26
2018-09-26T09:34:21.489Z,101659.72
2018-09-26T09:36:50.069Z,101656.81
2018-09-26T09:39:18.500Z,101656.59
2018-09-26T09:41:46.935Z,101657.36
2018-09-26T09:44:15.495Z,101664.52
2018-09-26T09:46:43.943Z,101658.57
2018-09-26T09:49:12.427Z,101656.72
2018-09-26T09:51:41.047Z,101658.20
2018-09-26T09:54:09.595Z,101652.81
2018-09-26T09:56:38.074Z,101661.64
2018-09-26T09:59:06.701Z,101668.70
2018-09-26T10:01:35.197Z,101657.63
2018-09-26T10:04:03.668Z,101662.75
2018-09-26T10:06:32.162Z,101665.47
2018-09-26T10:09:00.748Z,101669.05
2018-09-26T10:11:29.269Z,101662.12
2018-09-26T10:13:57.707Z,101660.73
2018-09-26T10:16:26.159Z,101662.13
2018-09-26T10:18:54.661Z,101666.22
2018-09-26T10:21:23.392Z,101671.02
2018-09-26T10:23:51.860Z,101676.45
2018-09-26T10:26:20.321Z,101665.90
2018-09-26T10:28:48.797Z,101655.48
2018-09-26T10:31:17.261Z,101661.33
2018-09-26T10:33:45.749Z,101664.59
2018-09-26T10:36:14.261Z,101657.48
2018-09-26T10:38:42.866Z,101655.03
2018-09-26T10:41:11.450Z,101660.98
2018-09-26T10:43:39.967Z,101653.03
2018-09-26T10:46:08.996Z,101647.59
2018-09-26T10:48:37.477Z,101653.92
2018-09-26T10:51:06.173Z,101655.95
2018-09-26T10:53:34.615Z,101648.84
2018-09-26T10:56:03.211Z,101646.28
2018-09-26T10:58:31.712Z,101643.05
2018-09-26T11:01:00.415Z,101641.55
2018-09-26T11:03:29.197Z,101633.64
2018-09-26T11:05:58.086Z,101635.42
2018-09-26T11:08:26.734Z,101621.94
2018-09-26T11:10:55.296Z,101618.87
2018-09-26T11:13:23.973Z,101627.38
2018-09-26T11:15:52.728Z,101630.27
2018-09-26T11:18:21.355Z,101622.47
2018-09-26T11:20:50.098Z,101622.19
2018-09-26T11:23:18.656Z,101613.80
2018-09-26T11:25:47.131Z,101616.31
2018-09-26T11:28:15.917Z,101609.47
2018-09-26T11:30:44.447Z,101609.61
2018-09-26T11:33:13.028Z,101605.89
2018-09-26T11:35:41.683Z,101611.08
2018-09-26T11:38:10.310Z,101597.77
2018-09-26T11:40:38.896Z,101603.05
2018-09-26T11:43:07.510Z,101600.59
2018-09-26T11:45:36.037Z,101602.69
2018-09-26T11:48:04.578Z,101595.72
2018-09-26T11:50:33.125Z,101595.59
2018-09-26T11:53:01.724Z,101594.50
2018-09-26T11:55:30.262Z,101589.16
2018-09-26T11:57:58.978Z,101585.05
2018-09-26T12:00:27.556Z,101582.52
2018-09-26T12:02:56.202Z,101572.95
2018-09-26T12:05:24.818Z,101569.76
2018-09-26T12:07:53.444Z,101575.59
2018-09-26T12:10:22.146Z,101561.16
2018-09-26T12:12:50.649Z,101557.92
2018-09-26T12:15:19.351Z,101549.13
2018-09-26T12:17:47.950Z,101550.20
2018-09-26T12:20:16.790Z,101545.84
2018-09-26T12:22:45.396Z,101538.23
2018-09-26T12:25:14.167Z,101544.88
2018-09-26T12:27:43.764Z,101549.24
2018-09-26T12:30:12.695Z,101543.70
2018-09-26T12:32:41.419Z,101535.80
2018-09-26T12:35:10.406Z,101535.62
2018-09-26T12:37:39.164Z,101537.05
2018-09-26T12:40:08.570Z,101533.08
2018-09-26T12:42:37.623Z,101530.94
2018-09-26T12:45:06.465Z,101534.13
2018-09-26T12:47:35.232Z,101533.85
2018-09-26T12:50:04.342Z,101534.05
2018-09-26T12:52:33.225Z,101527.08
2018-09-26T12:55:02.045Z,101514.39
2018-09-26T12:57:30.694Z,101517.01
2018-09-26T12:59:59.883Z,101512.14
2018-09-26T13:02:28.792Z,101508.13
2018-09-26T13:04:59.380Z,101504.66
2018-09-26T13:07:28.004Z,101497.92
2018-09-26T13:09:56.860Z,101500.19
2018-09-26T13:12:25.672Z,101496.45
2018-09-26T13:14:54.325Z,101495.41
2018-09-26T13:17:23.109Z,101484.23
2018-09-26T13:19:52.085Z,101480.98
2018-09-26T13:22:21.009Z,101484.84
2018-09-26T13:24:49.673Z,101486.77
2018-09-26T13:27:18.840Z,101481.01
2018-09-26T13:29:47.904Z,101474.80
2018-09-26T13:32:17.400Z,101481.52
2018-09-26T13:34:46.217Z,101474.92
2018-09-26T13:37:14.967Z,101475.62
2018-09-26T13:39:43.701Z,101480.61
2018-09-26T13:42:12.651Z,101486.94
2018-09-26T13:44:41.391Z,101483.52
2018-09-26T13:47:10.233Z,101478.63
2018-09-26T13:49:38.995Z,101474.66
2018-09-26T13:52:07.778Z,101474.37
2018-09-26T13:54:37.027Z,101473.23
2018-09-26T13:57:05.917Z,101464.45
2018-09-26T13:59:34.807Z,101471.56
2018-09-26T14:02:03.490Z,101466.16
2018-09-26T14:04:32.220Z,101454.59
2018-09-26T14:07:00.944Z,101456.08
2018-09-26T14:09:29.632Z,101449.97
2018-09-26T14:11:58.366Z,101446.08
2018-09-26T14:14:27.150Z,101448.34
2018-09-26T14:16:55.769Z,101443.40
2018-09-26T14:19:30.061Z,101448.78
2018-09-26T14:21:58.986Z,101440.59
2018-09-26T14:24:27.890Z,101434.51
2018-09-26T14:26:56.753Z,101429.28
2018-09-26T14:29:25.741Z,101431.65
2018-09-26T14:31:54.548Z,101434.77
2018-09-26T14:34:23.246Z,101433.84
2018-09-26T14:36:52.237Z,101425.79
2018-09-26T14:39:21.226Z,101421.83
2018-09-26T14:41:49.916Z,101423.64
2018-09-26T14:44:18.667Z,101409.95
2018-09-26T14:46:47.478Z,101412.22
2018-09-26T14:49:16.365Z,101409.66
2018-09-26T14:51:46.204Z,101414.00
2018-09-26T14:54:15.152Z,101409.95
2018-09-26T14:56:43.839Z,101418.16
2018-09-26T14:59:12.845Z,101407.69
2018-09-26T15:01:41.638Z,101395.16
2018-09-26T15:04:10.379Z,101397.11
2018-09-26T15:06:39.400Z,101392.55
2018-09-26T15:09:08.192Z,101402.39
2018-09-26T15:11:36.964Z,101396.98
2018-09-26T15:14:05.775Z,101393.88
2018-09-26T15:16:34.570Z,101407.36
2018-09-26T15:19:03.441Z,101404.79
2018-09-26T15:21:32.197Z,101396.34
2018-09-26T15:24:01.056Z,101391.22
2018-09-26T15:26:30.221Z,101384.17
2018-09-26T15:28:58.929Z,101383.12
2018-09-26T15:31:27.832Z,101383.73
2018-09-26T15:33:56.667Z,101387.39
2018-09-26T15:36:25.778Z,101388.78
2018-09-26T15:38:54.706Z,101382.25
2018-09-26T15:41:23.644Z,101386.28
2018-09-26T15:43:53.022Z,101386.28
2018-09-26T15:46:22.017Z,101382.77
2018-09-26T15:48:50.953Z,101387.24
2018-09-26T15:51:19.857Z,101392.22
2018-09-26T15:53:48.394Z,101389.21
2018-09-26T15:56:17.098Z,101386.67
2018-09-26T15:58:45.757Z,101385.89
2018-09-26T16:01:14.709Z,101393.98
2018-09-26T16:03:48.770Z,101394.01
2018-09-26T16:06:17.920Z,101389.79
2018-09-26T16:08:46.501Z,101392.17
2018-09-26T16:11:15.129Z,101393.05
2018-09-26T16:13:43.673Z,101386.05
2018-09-26T16:16:12.334Z,101385.69
2018-09-26T16:18:40.926Z,101385.78
2018-09-26T16:21:09.620Z,101386.41
2018-09-26T16:23:38.200Z,101386.56
2018-09-26T16:26:06.856Z,101386.66
2018-09-26T16:28:35.785Z,101388.58
2018-09-26T16:31:04.441Z,101377.59
2018-09-26T16:33:33.173Z,101373.70
2018-09-26T16:36:01.807Z,101377.36
2018-09-26T16:38:30.452Z,101376.59
2018-09-26T16:40:59.224Z,101385.61
2018-09-26T16:43:27.951Z,101385.72
2018-09-26T16:45:56.606Z,101380.98
2018-09-26T16:48:25.600Z,101384.62
2018-09-26T16:50:54.277Z,101386.55
2018-09-26T16:53:22.886Z,101379.13
2018-09-26T16:55:51.650Z,101381.45
2018-09-26T16:58:20.490Z,101379.78
2018-09-26T17:00:49.307Z,101380.41
2018-09-26T17:03:18.007Z,101383.17
2018-09-26T17:05:46.723Z,101380.73
2018-09-26T17:08:15.377Z,101378.66
2018-09-26T17:10:43.934Z,101376.63
2018-09-26T17:13:12.549Z,101375.47
2018-09-26T17:15:41.178Z,101387.14
2018-09-26T17:18:09.863Z,101381.52
2018-09-26T17:20:38.677Z,101376.39
2018-09-26T17:23:07.258Z,101380.09
2018-09-26T17:25:35.908Z,101386.42
2018-09-26T17:28:04.572Z,101382.55
2018-09-26T17:30:34.009Z,101387.58
2018-09-26T17:33:02.861Z,101387.25
2018-09-26T17:35:32.002Z,101386.03
2018-09-26T17:38:00.875Z,101391.86
2018-09-26T17:40:29.560Z,101388.03
2018-09-26T17:42:58.305Z,101389.92
2018-09-26T17:45:26.954Z,101384.27
2018-09-26T17:47:55.694Z,101385.70
2018-09-26T17:50:24.542Z,101380.06
2018-09-26T17:52:53.366Z,101379.37
2018-09-26T17:55:22.124Z,101376.88
2018-09-26T17:57:51.047Z,101368.19
2018-09-26T18:00:19.924Z,101373.64
2018-09-26T18:02:49.715Z,101375.94
2018-09-26T18:05:19.047Z,101372.97
2018-09-26T18:07:48.588Z,101372.16
2018-09-26T18:10:17.306Z,101373.13
2018-09-26T18:12:46.394Z,101371.02
2018-09-26T18:15:15.088Z,101374.64
2018-09-26T18:17:43.789Z,101377.83
2018-09-26T18:20:12.391Z,101377.94
2018-09-26T18:22:41.338Z,101388.56
2018-09-26T18:25:10.338Z,101385.56
2018-09-26T18:27:39.198Z,101390.05
2018-09-26T18:30:07.932Z,101391.86
2018-09-26T18:32:36.460Z,101396.33
2018-09-26T18:35:05.382Z,101392.44
2018-09-26T18:37:34.181Z,101394.25
2018-09-26T18:40:02.999Z,101396.98
2018-09-26T18:42:31.987Z,101397.05
2018-09-26T18:45:02.238Z,101401.06
2018-09-26T18:47:30.920Z,101396.28
2018-09-26T18:50:00.033Z,101399.87
2018-09-26T18:52:28.925Z,101397.73
2018-09-26T18:55:01.725Z,101399.52
2018-09-26T18:57:30.408Z,101405.30
2018-09-26T18:59:59.081Z,101402.72
2018-09-26T19:02:27.779Z,101411.12
2018-09-26T19:04:56.909Z,101415.09
2018-09-26T19:07:25.522Z,101412.92
2018-09-26T19:09:54.153Z,101411.64
2018-09-26T19:12:22.872Z,101420.93
2018-09-26T19:14:51.828Z,101428.00
2018-09-26T19:17:20.446Z,101428.92
2018-09-26T19:19:49.090Z,101424.10
2018-09-26T19:22:17.855Z,101422.81
2018-09-26T19:24:46.617Z,101421.95
2018-09-26T19:27:15.398Z,101426.84
2018-09-26T19:29:44.160Z,101424.22
2018-09-26T19:32:12.752Z,101428.23
2018-09-26T19:34:41.312Z,101430.45
2018-09-26T19:37:09.897Z,101428.72
2018-09-26T19:39:38.451Z,101422.16
2018-09-26T19:42:07.113Z,101422.19
2018-09-26T19:44:35.598Z,101422.64
2018-09-26T19:47:04.128Z,101419.58
2018-09-26T19:49:32.756Z,101418.28
2018-09-26T19:52:01.398Z,101419.19
2018-09-26T19:54:29.936Z,101430.61
2018-09-26T19:56:58.704Z,101425.80
2018-09-26T19:59:27.432Z,101427.13
2018-09-26T20:01:56.113Z,101437.28
2018-09-26T20:04:24.722Z,101438.17
2018-09-26T20:06:53.391Z,101438.20
2018-09-26T20:09:21.948Z,101435.12
2018-09-26T20:11:50.548Z,101436.47
2018-09-26T20:14:19.170Z,101441.31
2018-09-26T20:16:47.789Z,101444.39
2018-09-26T20:19:16.370Z,101446.61
2018-09-26T20:21:45.008Z,101443.09
2018-09-26T20:24:13.694Z,101445.70
2018-09-26T20:26:42.313Z,101448.36
2018-09-26T20:29:10.901Z,101440.87
2018-09-26T20:31:39.442Z,101443.54
2018-09-26T20:34:08.232Z,101444.39
2018-09-26T20:36:36.787Z,101438.27
2018-09-26T20:39:08.420Z,101441.34
2018-09-26T20:41:37.136Z,101300.22
2018-09-26T20:44:05.776Z,101439.14
2018-09-26T20:46:34.493Z,101434.74
2018-09-26T20:49:03.162Z,101432.06
2018-09-26T20:51:32.082Z,101435.58
2018-09-26T20:54:00.716Z,101437.33
2018-09-26T20:56:29.305Z,101436.02
2018-09-26T20:58:57.950Z,101442.16
2018-09-26T21:01:26.550Z,101449.64
2018-09-26T21:03:55.156Z,101444.80
2018-09-26T21:06:23.876Z,101445.23
2018-09-26T21:08:52.533Z,101446.53
2018-09-26T21:11:21.320Z,101443.02
2018-09-26T21:13:49.931Z,101440.38
2018-09-26T21:16:18.568Z,101444.31
2018-09-26T21:18:47.220Z,101443.89
2018-09-26T21:21:15.851Z,101440.34
2018-09-26T21:23:44.537Z,101442.56
2018-09-26T21:26:13.160Z,101463.61
2018-09-26T21:28:41.748Z,101449.12
2018-09-26T21:31:10.454Z,101445.17
2018-09-26T21:33:39.146Z,101445.58
2018-09-26T21:36:07.720Z,101440.73
2018-09-26T21:38:36.444Z,101430.63
2018-09-26T21:41:05.069Z,101439.38
2018-09-26T21:43:33.827Z,101444.21
2018-09-26T21:46:02.536Z,101439.36
2018-09-26T21:48:31.060Z,101442.86
2018-09-26T21:50:59.779Z,101445.05
2018-09-26T21:53:28.457Z,101448.13
2018-09-26T21:55:57.019Z,101445.91
2018-09-26T21:58:25.568Z,101452.05
2018-09-26T22:00:59.533Z,101448.50
2018-09-26T22:03:28.151Z,101458.14
2018-09-26T22:05:56.710Z,101447.16
2018-09-26T22:08:25.317Z,101457.24
2018-09-26T22:10:53.907Z,101458.08
2018-09-26T22:13:23.052Z,101454.52
2018-09-26T22:15:51.992Z,101454.51
2018-09-26T22:18:20.928Z,101449.67
2018-09-26T22:20:49.599Z,101443.51
2018-09-26T22:23:18.503Z,101441.30
2018-09-26T22:25:47.325Z,101437.78
2018-09-26T22:28:15.942Z,101446.13
2018-09-26T22:30:45.518Z,101444.34
2018-09-26T22:33:14.341Z,101443.04
2018-09-26T22:35:43.103Z,101455.31
2018-09-26T22:38:11.964Z,101448.72
2018-09-26T22:40:40.766Z,101442.55
2018-09-26T22:43:09.607Z,101444.30
2018-09-26T22:45:38.440Z,101441.64
2018-09-26T22:48:07.276Z,101446.47
2018-09-26T22:50:36.056Z,101447.77
2018-09-26T22:53:04.820Z,101444.26
2018-09-26T22:55:33.441Z,101441.16
2018-09-26T22:58:02.136Z,101439.41
2018-09-26T23:00:30.763Z,101442.02
2018-09-26T23:02:59.462Z,101442.45
2018-09-26T23:05:28.209Z,101434.11
2018-09-26T23:07:56.925Z,101426.62
2018-09-26T23:10:25.570Z,101406.34
2018-09-26T23:12:54.185Z,101434.52
2018-09-26T23:15:22.997Z,101426.16
2018-09-26T23:17:51.580Z,101427.45
2018-09-26T23:20:20.305Z,101421.75
2018-09-26T23:22:49.031Z,101419.55
2018-09-26T23:25:17.763Z,101420.87
2018-09-26T23:27:46.639Z,101416.04
2018-09-26T23:30:15.287Z,101419.55
2018-09-26T23:32:43.882Z,101418.64
2018-09-26T23:35:12.488Z,101416.45
2018-09-26T23:37:41.097Z,101412.92
2018-09-26T23:40:09.676Z,101402.84
2018-09-26T23:42:38.197Z,101408.50
2018-09-26T23:45:06.866Z,101406.74
2018-09-26T23:47:35.435Z,101405.44
2018-09-26T23:50:04.071Z,101407.60
2018-09-26T23:52:32.662Z,101394.86
2018-09-26T23:55:01.216Z,101391.73
2018-09-26T23:57:29.790Z,101387.34
2018-09-26T23:59:58.304Z,101393.03
